sensor_id;sensor_type;location;lat;lon;timestamp;P1;durP1;ratioP1;P2;durP2;ratioP2
82985;SDS011;72786;53.546;9.910;2024-03-06T00:02:21;15.55;;;6.43;;
82985;SDS011;72786;53.546;9.910;2024-03-06T00:04:47;13.48;;;6.43;;
82985;SDS011;72786;53.546;9.910;2024-03-06T00:07:14;14.55;;;6.72;;
82985;SDS011;72786;53.546;9.910;2024-03-06T00:09:40;15.68;;;6.70;;
82985;SDS011;72786;53.546;9.910;2024-03-06T00:12:07;15.10;;;6.65;;
82985;SDS011;72786;53.546;9.910;2024-03-06T00:14:34;15.82;;;6.93;;
82985;SDS011;72786;53.546;9.910;2024-03-06T00:17:02;12.20;;;6.65;;
82985;SDS011;72786;53.546;9.910;2024-03-06T00:19:31;14.30;;;7.38;;
82985;SDS011;72786;53.546;9.910;2024-03-06T00:21:57;13.18;;;6.35;;
82985;SDS011;72786;53.546;9.910;2024-03-06T00:24:24;12.30;;;6.70;;
82985;SDS011;72786;53.546;9.910;2024-03-06T00:26:51;15.30;;;6.70;;
82985;SDS011;72786;53.546;9.910;2024-03-06T00:29:17;15.18;;;7.28;;
82985;SDS011;72786;53.546;9.910;2024-03-06T00:31:44;14.73;;;7.25;;
82985;SDS011;72786;53.546;9.910;2024-03-06T00:34:12;13.70;;;6.85;;
82985;SDS011;72786;53.546;9.910;2024-03-06T00:36:40;15.75;;;6.82;;
82985;SDS011;72786;53.546;9.910;2024-03-06T00:39:07;16.48;;;5.82;;
82985;SDS011;72786;53.546;9.910;2024-03-06T00:41:35;12.93;;;6.13;;
82985;SDS011;72786;53.546;9.910;2024-03-06T00:44:02;14.60;;;6.18;;
82985;SDS011;72786;53.546;9.910;2024-03-06T00:46:29;14.00;;;6.53;;
82985;SDS011;72786;53.546;9.910;2024-03-06T00:48:56;12.52;;;6.22;;
82985;SDS011;72786;53.546;9.910;2024-03-06T00:51:22;13.90;;;6.70;;
82985;SDS011;72786;53.546;9.910;2024-03-06T00:54:06;12.02;;;5.93;;
82985;SDS011;72786;53.546;9.910;2024-03-06T00:56:32;10.02;;;5.30;;
82985;SDS011;72786;53.546;9.910;2024-03-06T00:59:02;13.45;;;5.80;;
82985;SDS011;72786;53.546;9.910;2024-03-06T01:01:29;11.45;;;5.47;;
82985;SDS011;72786;53.546;9.910;2024-03-06T01:03:56;10.93;;;6.25;;
82985;SDS011;72786;53.546;9.910;2024-03-06T01:06:22;13.23;;;6.05;;
82985;SDS011;72786;53.546;9.910;2024-03-06T01:08:49;11.30;;;4.97;;
82985;SDS011;72786;53.546;9.910;2024-03-06T01:11:15;9.95;;;5.18;;
82985;SDS011;72786;53.546;9.910;2024-03-06T01:13:41;10.63;;;5.30;;
82985;SDS011;72786;53.546;9.910;2024-03-06T01:16:08;10.77;;;4.95;;
82985;SDS011;72786;53.546;9.910;2024-03-06T01:18:35;11.40;;;5.50;;
82985;SDS011;72786;53.546;9.910;2024-03-06T01:21:02;12.50;;;5.38;;
82985;SDS011;72786;53.546;9.910;2024-03-06T01:23:29;10.18;;;5.45;;
82985;SDS011;72786;53.546;9.910;2024-03-06T01:25:56;10.48;;;4.82;;
82985;SDS011;72786;53.546;9.910;2024-03-06T01:28:22;8.40;;;4.22;;
82985;SDS011;72786;53.546;9.910;2024-03-06T01:30:49;9.48;;;4.53;;
82985;SDS011;72786;53.546;9.910;2024-03-06T01:33:15;9.30;;;4.45;;
82985;SDS011;72786;53.546;9.910;2024-03-06T01:35:42;11.35;;;4.93;;
82985;SDS011;72786;53.546;9.910;2024-03-06T01:38:08;13.48;;;4.88;;
82985;SDS011;72786;53.546;9.910;2024-03-06T01:40:36;11.98;;;5.10;;
82985;SDS011;72786;53.546;9.910;2024-03-06T01:43:03;9.63;;;5.00;;
82985;SDS011;72786;53.546;9.910;2024-03-06T01:45:30;11.60;;;5.38;;
82985;SDS011;72786;53.546;9.910;2024-03-06T01:47:57;10.40;;;4.35;;
82985;SDS011;72786;53.546;9.910;2024-03-06T01:50:24;11.43;;;4.75;;
82985;SDS011;72786;53.546;9.910;2024-03-06T01:52:50;9.35;;;4.50;;
82985;SDS011;72786;53.546;9.910;2024-03-06T01:55:17;12.35;;;5.20;;
82985;SDS011;72786;53.546;9.910;2024-03-06T01:57:47;10.80;;;4.93;;
82985;SDS011;72786;53.546;9.910;2024-03-06T02:00:14;9.75;;;4.75;;
82985;SDS011;72786;53.546;9.910;2024-03-06T02:02:42;10.00;;;4.88;;
82985;SDS011;72786;53.546;9.910;2024-03-06T02:05:09;12.88;;;5.53;;
82985;SDS011;72786;53.546;9.910;2024-03-06T02:07:37;10.38;;;5.43;;
82985;SDS011;72786;53.546;9.910;2024-03-06T02:10:07;10.68;;;5.30;;
82985;SDS011;72786;53.546;9.910;2024-03-06T02:12:36;8.77;;;4.60;;
82985;SDS011;72786;53.546;9.910;2024-03-06T02:15:03;10.60;;;4.47;;
82985;SDS011;72786;53.546;9.910;2024-03-06T02:17:30;9.60;;;4.63;;
82985;SDS011;72786;53.546;9.910;2024-03-06T02:19:57;9.10;;;4.53;;
82985;SDS011;72786;53.546;9.910;2024-03-06T02:22:26;10.57;;;5.45;;
82985;SDS011;72786;53.546;9.910;2024-03-06T02:24:53;10.70;;;4.82;;
82985;SDS011;72786;53.546;9.910;2024-03-06T02:27:19;11.80;;;5.47;;
82985;SDS011;72786;53.546;9.910;2024-03-06T02:29:46;9.43;;;4.75;;
82985;SDS011;72786;53.546;9.910;2024-03-06T02:32:12;10.18;;;5.20;;
82985;SDS011;72786;53.546;9.910;2024-03-06T02:34:40;12.55;;;5.15;;
82985;SDS011;72786;53.546;9.910;2024-03-06T02:37:07;10.48;;;4.78;;
82985;SDS011;72786;53.546;9.910;2024-03-06T02:39:34;11.07;;;4.95;;
82985;SDS011;72786;53.546;9.910;2024-03-06T02:42:00;9.63;;;5.05;;
82985;SDS011;72786;53.546;9.910;2024-03-06T02:44:27;8.75;;;4.65;;
82985;SDS011;72786;53.546;9.910;2024-03-06T02:46:54;8.57;;;4.97;;
82985;SDS011;72786;53.546;9.910;2024-03-06T02:49:21;10.43;;;5.05;;
82985;SDS011;72786;53.546;9.910;2024-03-06T02:51:47;10.00;;;4.82;;
82985;SDS011;72786;53.546;9.910;2024-03-06T02:54:14;10.93;;;5.35;;
82985;SDS011;72786;53.546;9.910;2024-03-06T02:56:40;9.43;;;4.65;;
82985;SDS011;72786;53.546;9.910;2024-03-06T02:59:07;11.15;;;5.28;;
82985;SDS011;72786;53.546;9.910;2024-03-06T03:01:34;8.35;;;5.03;;
82985;SDS011;72786;53.546;9.910;2024-03-06T03:04:00;10.88;;;5.47;;
82985;SDS011;72786;53.546;9.910;2024-03-06T03:06:27;10.43;;;5.28;;
82985;SDS011;72786;53.546;9.910;2024-03-06T03:08:55;11.15;;;5.45;;
82985;SDS011;72786;53.546;9.910;2024-03-06T03:11:22;11.40;;;5.65;;
82985;SDS011;72786;53.546;9.910;2024-03-06T03:13:49;12.75;;;5.63;;
82985;SDS011;72786;53.546;9.910;2024-03-06T03:16:18;12.45;;;5.88;;
82985;SDS011;72786;53.546;9.910;2024-03-06T03:18:46;15.75;;;5.97;;
82985;SDS011;72786;53.546;9.910;2024-03-06T03:21:14;11.57;;;5.68;;
82985;SDS011;72786;53.546;9.910;2024-03-06T03:23:41;9.90;;;5.07;;
82985;SDS011;72786;53.546;9.910;2024-03-06T03:26:08;9.48;;;5.20;;
82985;SDS011;72786;53.546;9.910;2024-03-06T03:28:37;10.00;;;5.63;;
82985;SDS011;72786;53.546;9.910;2024-03-06T03:31:06;13.63;;;6.05;;
82985;SDS011;72786;53.546;9.910;2024-03-06T03:33:35;15.27;;;5.63;;
82985;SDS011;72786;53.546;9.910;2024-03-06T03:36:08;10.18;;;5.00;;
82985;SDS011;72786;53.546;9.910;2024-03-06T03:38:35;11.38;;;5.95;;
82985;SDS011;72786;53.546;9.910;2024-03-06T03:41:10;12.18;;;5.38;;
82985;SDS011;72786;53.546;9.910;2024-03-06T03:43:39;14.50;;;5.43;;
82985;SDS011;72786;53.546;9.910;2024-03-06T03:46:06;10.55;;;5.10;;
82985;SDS011;72786;53.546;9.910;2024-03-06T03:48:33;10.35;;;4.90;;
82985;SDS011;72786;53.546;9.910;2024-03-06T03:51:02;11.82;;;5.30;;
82985;SDS011;72786;53.546;9.910;2024-03-06T03:53:33;9.50;;;4.78;;
82985;SDS011;72786;53.546;9.910;2024-03-06T03:56:00;12.30;;;5.13;;
82985;SDS011;72786;53.546;9.910;2024-03-06T03:58:27;9.95;;;4.85;;
82985;SDS011;72786;53.546;9.910;2024-03-06T04:00:53;11.32;;;5.07;;
82985;SDS011;72786;53.546;9.910;2024-03-06T04:03:22;9.25;;;5.00;;
82985;SDS011;72786;53.546;9.910;2024-03-06T04:05:48;11.15;;;5.07;;
82985;SDS011;72786;53.546;9.910;2024-03-06T04:08:15;11.30;;;4.93;;
82985;SDS011;72786;53.546;9.910;2024-03-06T04:10:42;11.68;;;5.13;;
82985;SDS011;72786;53.546;9.910;2024-03-06T04:13:14;9.88;;;4.72;;
82985;SDS011;72786;53.546;9.910;2024-03-06T04:15:42;11.18;;;5.07;;
82985;SDS011;72786;53.546;9.910;2024-03-06T04:18:08;10.57;;;5.35;;
82985;SDS011;72786;53.546;9.910;2024-03-06T04:20:35;11.25;;;4.88;;
82985;SDS011;72786;53.546;9.910;2024-03-06T04:23:01;13.43;;;5.07;;
82985;SDS011;72786;53.546;9.910;2024-03-06T04:25:28;12.38;;;5.18;;
82985;SDS011;72786;53.546;9.910;2024-03-06T04:27:55;11.82;;;4.75;;
82985;SDS011;72786;53.546;9.910;2024-03-06T04:30:21;13.25;;;5.50;;
82985;SDS011;72786;53.546;9.910;2024-03-06T04:32:48;10.02;;;5.03;;
82985;SDS011;72786;53.546;9.910;2024-03-06T04:35:15;12.05;;;5.60;;
82985;SDS011;72786;53.546;9.910;2024-03-06T04:37:42;12.48;;;5.00;;
82985;SDS011;72786;53.546;9.910;2024-03-06T04:40:10;11.75;;;5.55;;
82985;SDS011;72786;53.546;9.910;2024-03-06T04:42:37;10.10;;;4.88;;
82985;SDS011;72786;53.546;9.910;2024-03-06T04:45:09;12.25;;;5.28;;
82985;SDS011;72786;53.546;9.910;2024-03-06T04:47:38;11.93;;;5.60;;
82985;SDS011;72786;53.546;9.910;2024-03-06T04:50:08;11.45;;;5.18;;
82985;SDS011;72786;53.546;9.910;2024-03-06T04:52:39;10.40;;;4.68;;
82985;SDS011;72786;53.546;9.910;2024-03-06T04:55:06;10.60;;;5.35;;
82985;SDS011;72786;53.546;9.910;2024-03-06T04:57:34;9.48;;;5.05;;
82985;SDS011;72786;53.546;9.910;2024-03-06T05:00:00;11.05;;;5.13;;
82985;SDS011;72786;53.546;9.910;2024-03-06T05:02:32;12.48;;;5.50;;
82985;SDS011;72786;53.546;9.910;2024-03-06T05:05:20;12.15;;;5.97;;
82985;SDS011;72786;53.546;9.910;2024-03-06T05:08:04;10.18;;;4.97;;
82985;SDS011;72786;53.546;9.910;2024-03-06T05:10:48;9.52;;;5.50;;
82985;SDS011;72786;53.546;9.910;2024-03-06T05:13:33;9.70;;;4.97;;
82985;SDS011;72786;53.546;9.910;2024-03-06T05:16:16;12.98;;;5.60;;
82985;SDS011;72786;53.546;9.910;2024-03-06T05:19:01;9.77;;;4.97;;
82985;SDS011;72786;53.546;9.910;2024-03-06T05:21:45;9.73;;;4.60;;
82985;SDS011;72786;53.546;9.910;2024-03-06T05:24:29;8.63;;;4.40;;
82985;SDS011;72786;53.546;9.910;2024-03-06T05:27:13;10.40;;;4.97;;
82985;SDS011;72786;53.546;9.910;2024-03-06T05:30:00;7.63;;;4.50;;
82985;SDS011;72786;53.546;9.910;2024-03-06T05:32:44;9.13;;;4.57;;
82985;SDS011;72786;53.546;9.910;2024-03-06T05:35:30;11.85;;;4.93;;
82985;SDS011;72786;53.546;9.910;2024-03-06T05:38:14;10.65;;;4.75;;
82985;SDS011;72786;53.546;9.910;2024-03-06T05:40:58;9.45;;;4.55;;
82985;SDS011;72786;53.546;9.910;2024-03-06T05:43:42;9.80;;;5.07;;
82985;SDS011;72786;53.546;9.910;2024-03-06T05:46:25;12.98;;;4.78;;
82985;SDS011;72786;53.546;9.910;2024-03-06T05:49:10;10.25;;;5.63;;
82985;SDS011;72786;53.546;9.910;2024-03-06T05:51:54;10.95;;;4.70;;
82985;SDS011;72786;53.546;9.910;2024-03-06T05:54:38;9.15;;;4.97;;
82985;SDS011;72786;53.546;9.910;2024-03-06T05:57:22;9.82;;;5.00;;
82985;SDS011;72786;53.546;9.910;2024-03-06T06:00:07;8.75;;;4.80;;
82985;SDS011;72786;53.546;9.910;2024-03-06T06:02:37;11.45;;;5.28;;
82985;SDS011;72786;53.546;9.910;2024-03-06T06:05:04;10.80;;;5.30;;
82985;SDS011;72786;53.546;9.910;2024-03-06T06:07:48;10.00;;;4.57;;
82985;SDS011;72786;53.546;9.910;2024-03-06T06:10:16;8.55;;;4.70;;
82985;SDS011;72786;53.546;9.910;2024-03-06T06:12:46;9.10;;;5.07;;
82985;SDS011;72786;53.546;9.910;2024-03-06T06:15:12;10.00;;;5.47;;
82985;SDS011;72786;53.546;9.910;2024-03-06T06:17:39;12.65;;;5.75;;
82985;SDS011;72786;53.546;9.910;2024-03-06T06:20:09;8.32;;;4.72;;
82985;SDS011;72786;53.546;9.910;2024-03-06T06:22:41;10.45;;;4.93;;
82985;SDS011;72786;53.546;9.910;2024-03-06T06:25:08;7.60;;;4.30;;
82985;SDS011;72786;53.546;9.910;2024-03-06T06:27:36;11.02;;;4.60;;
82985;SDS011;72786;53.546;9.910;2024-03-06T06:30:02;11.10;;;5.28;;
82985;SDS011;72786;53.546;9.910;2024-03-06T06:32:32;8.65;;;4.30;;
82985;SDS011;72786;53.546;9.910;2024-03-06T06:34:59;9.63;;;5.13;;
82985;SDS011;72786;53.546;9.910;2024-03-06T06:37:26;9.27;;;4.97;;
82985;SDS011;72786;53.546;9.910;2024-03-06T06:39:52;11.55;;;4.93;;
82985;SDS011;72786;53.546;9.910;2024-03-06T06:42:19;7.93;;;4.28;;
82985;SDS011;72786;53.546;9.910;2024-03-06T06:44:45;7.10;;;4.10;;
82985;SDS011;72786;53.546;9.910;2024-03-06T06:47:11;8.13;;;4.43;;
82985;SDS011;72786;53.546;9.910;2024-03-06T06:49:39;9.10;;;4.53;;
82985;SDS011;72786;53.546;9.910;2024-03-06T06:52:05;9.95;;;4.50;;
82985;SDS011;72786;53.546;9.910;2024-03-06T06:54:32;9.73;;;4.20;;
82985;SDS011;72786;53.546;9.910;2024-03-06T06:56:58;8.55;;;4.60;;
82985;SDS011;72786;53.546;9.910;2024-03-06T06:59:25;9.50;;;4.43;;
82985;SDS011;72786;53.546;9.910;2024-03-06T07:01:51;8.77;;;5.20;;
82985;SDS011;72786;53.546;9.910;2024-03-06T07:04:18;10.13;;;4.63;;
82985;SDS011;72786;53.546;9.910;2024-03-06T07:06:46;6.55;;;4.30;;
82985;SDS011;72786;53.546;9.910;2024-03-06T07:09:12;9.65;;;4.50;;
82985;SDS011;72786;53.546;9.910;2024-03-06T07:11:42;8.27;;;4.00;;
82985;SDS011;72786;53.546;9.910;2024-03-06T07:14:12;10.93;;;4.32;;
82985;SDS011;72786;53.546;9.910;2024-03-06T07:16:42;9.68;;;4.35;;
82985;SDS011;72786;53.546;9.910;2024-03-06T07:19:09;7.07;;;3.70;;
82985;SDS011;72786;53.546;9.910;2024-03-06T07:21:36;6.65;;;3.83;;
82985;SDS011;72786;53.546;9.910;2024-03-06T07:24:04;8.98;;;3.63;;
82985;SDS011;72786;53.546;9.910;2024-03-06T07:26:34;14.20;;;6.82;;
82985;SDS011;72786;53.546;9.910;2024-03-06T07:29:01;10.48;;;5.38;;
82985;SDS011;72786;53.546;9.910;2024-03-06T07:31:29;6.25;;;3.65;;
82985;SDS011;72786;53.546;9.910;2024-03-06T07:33:55;6.82;;;3.80;;
82985;SDS011;72786;53.546;9.910;2024-03-06T07:36:22;11.57;;;4.60;;
82985;SDS011;72786;53.546;9.910;2024-03-06T07:38:48;10.23;;;4.85;;
82985;SDS011;72786;53.546;9.910;2024-03-06T07:41:15;8.90;;;4.57;;
82985;SDS011;72786;53.546;9.910;2024-03-06T07:43:41;8.68;;;4.18;;
82985;SDS011;72786;53.546;9.910;2024-03-06T07:46:08;8.15;;;4.32;;
82985;SDS011;72786;53.546;9.910;2024-03-06T07:48:37;8.45;;;4.22;;
82985;SDS011;72786;53.546;9.910;2024-03-06T07:51:04;8.95;;;4.35;;
82985;SDS011;72786;53.546;9.910;2024-03-06T07:53:30;9.32;;;4.30;;
82985;SDS011;72786;53.546;9.910;2024-03-06T07:55:57;8.98;;;4.45;;
82985;SDS011;72786;53.546;9.910;2024-03-06T07:58:23;11.93;;;5.45;;
82985;SDS011;72786;53.546;9.910;2024-03-06T08:00:50;7.78;;;4.78;;
82985;SDS011;72786;53.546;9.910;2024-03-06T08:03:19;9.13;;;5.00;;
82985;SDS011;72786;53.546;9.910;2024-03-06T08:05:45;7.70;;;4.55;;
82985;SDS011;72786;53.546;9.910;2024-03-06T08:08:12;9.85;;;4.78;;
82985;SDS011;72786;53.546;9.910;2024-03-06T08:10:38;7.10;;;4.38;;
82985;SDS011;72786;53.546;9.910;2024-03-06T08:13:05;6.95;;;4.70;;
82985;SDS011;72786;53.546;9.910;2024-03-06T08:15:31;10.07;;;5.70;;
82985;SDS011;72786;53.546;9.910;2024-03-06T08:17:57;8.90;;;4.80;;
82985;SDS011;72786;53.546;9.910;2024-03-06T08:20:24;9.88;;;5.57;;
82985;SDS011;72786;53.546;9.910;2024-03-06T08:22:51;9.18;;;4.85;;
82985;SDS011;72786;53.546;9.910;2024-03-06T08:25:17;11.85;;;6.63;;
82985;SDS011;72786;53.546;9.910;2024-03-06T08:27:43;7.65;;;4.32;;
82985;SDS011;72786;53.546;9.910;2024-03-06T08:30:10;7.65;;;4.35;;
82985;SDS011;72786;53.546;9.910;2024-03-06T08:32:37;8.40;;;4.78;;
82985;SDS011;72786;53.546;9.910;2024-03-06T08:37:34;8.32;;;4.93;;
82985;SDS011;72786;53.546;9.910;2024-03-06T08:40:00;8.10;;;4.57;;
82985;SDS011;72786;53.546;9.910;2024-03-06T08:42:27;8.57;;;5.03;;
82985;SDS011;72786;53.546;9.910;2024-03-06T08:44:54;10.65;;;6.03;;
82985;SDS011;72786;53.546;9.910;2024-03-06T08:47:21;10.07;;;5.72;;
82985;SDS011;72786;53.546;9.910;2024-03-06T08:49:47;8.27;;;4.82;;
82985;SDS011;72786;53.546;9.910;2024-03-06T08:52:14;9.00;;;4.90;;
82985;SDS011;72786;53.546;9.910;2024-03-06T08:54:40;8.65;;;5.05;;
82985;SDS011;72786;53.546;9.910;2024-03-06T08:57:10;10.30;;;5.15;;
82985;SDS011;72786;53.546;9.910;2024-03-06T08:59:36;8.07;;;4.47;;
82985;SDS011;72786;53.546;9.910;2024-03-06T09:02:13;10.65;;;5.47;;
82985;SDS011;72786;53.546;9.910;2024-03-06T09:04:41;18.08;;;8.93;;
82985;SDS011;72786;53.546;9.910;2024-03-06T09:07:08;8.75;;;5.38;;
82985;SDS011;72786;53.546;9.910;2024-03-06T09:09:35;10.73;;;5.65;;
82985;SDS011;72786;53.546;9.910;2024-03-06T09:12:06;10.88;;;6.57;;
82985;SDS011;72786;53.546;9.910;2024-03-06T09:14:33;11.85;;;5.57;;
82985;SDS011;72786;53.546;9.910;2024-03-06T09:17:00;8.82;;;5.00;;
82985;SDS011;72786;53.546;9.910;2024-03-06T09:19:28;9.68;;;5.45;;
82985;SDS011;72786;53.546;9.910;2024-03-06T09:21:54;10.98;;;6.00;;
82985;SDS011;72786;53.546;9.910;2024-03-06T09:24:21;8.32;;;4.85;;
82985;SDS011;72786;53.546;9.910;2024-03-06T09:26:50;11.02;;;5.95;;
82985;SDS011;72786;53.546;9.910;2024-03-06T09:29:17;12.57;;;5.70;;
82985;SDS011;72786;53.546;9.910;2024-03-06T09:31:44;9.95;;;6.13;;
82985;SDS011;72786;53.546;9.910;2024-03-06T09:34:11;10.32;;;6.20;;
82985;SDS011;72786;53.546;9.910;2024-03-06T09:36:45;10.43;;;5.65;;
82985;SDS011;72786;53.546;9.910;2024-03-06T09:39:12;10.38;;;5.32;;
82985;SDS011;72786;53.546;9.910;2024-03-06T09:41:43;9.43;;;5.72;;
82985;SDS011;72786;53.546;9.910;2024-03-06T09:44:11;10.13;;;4.93;;
82985;SDS011;72786;53.546;9.910;2024-03-06T09:46:38;9.45;;;5.18;;
82985;SDS011;72786;53.546;9.910;2024-03-06T09:49:05;11.27;;;5.22;;
82985;SDS011;72786;53.546;9.910;2024-03-06T09:51:34;8.23;;;4.78;;
82985;SDS011;72786;53.546;9.910;2024-03-06T09:54:00;11.70;;;5.75;;
82985;SDS011;72786;53.546;9.910;2024-03-06T09:56:29;11.88;;;5.40;;
82985;SDS011;72786;53.546;9.910;2024-03-06T09:58:55;10.88;;;5.40;;
82985;SDS011;72786;53.546;9.910;2024-03-06T10:01:22;9.63;;;4.80;;
82985;SDS011;72786;53.546;9.910;2024-03-06T10:03:50;10.57;;;5.40;;
82985;SDS011;72786;53.546;9.910;2024-03-06T10:06:16;10.10;;;4.53;;
82985;SDS011;72786;53.546;9.910;2024-03-06T10:08:43;9.00;;;4.85;;
82985;SDS011;72786;53.546;9.910;2024-03-06T10:11:10;9.90;;;5.22;;
82985;SDS011;72786;53.546;9.910;2024-03-06T10:13:37;11.85;;;5.55;;
82985;SDS011;72786;53.546;9.910;2024-03-06T10:16:04;12.77;;;6.30;;
82985;SDS011;72786;53.546;9.910;2024-03-06T10:18:36;13.57;;;5.38;;
82985;SDS011;72786;53.546;9.910;2024-03-06T10:21:05;10.50;;;6.18;;
82985;SDS011;72786;53.546;9.910;2024-03-06T10:23:32;11.90;;;6.53;;
82985;SDS011;72786;53.546;9.910;2024-03-06T10:25:58;13.00;;;6.10;;
82985;SDS011;72786;53.546;9.910;2024-03-06T10:28:25;10.98;;;6.20;;
82985;SDS011;72786;53.546;9.910;2024-03-06T10:31:02;14.40;;;5.95;;
82985;SDS011;72786;53.546;9.910;2024-03-06T10:33:31;14.75;;;6.00;;
82985;SDS011;72786;53.546;9.910;2024-03-06T10:35:58;19.10;;;8.68;;
82985;SDS011;72786;53.546;9.910;2024-03-06T10:38:29;11.43;;;5.75;;
82985;SDS011;72786;53.546;9.910;2024-03-06T10:41:03;10.70;;;5.95;;
82985;SDS011;72786;53.546;9.910;2024-03-06T10:43:32;11.15;;;6.38;;
82985;SDS011;72786;53.546;9.910;2024-03-06T10:46:01;11.73;;;6.75;;
82985;SDS011;72786;53.546;9.910;2024-03-06T10:48:32;12.95;;;6.65;;
82985;SDS011;72786;53.546;9.910;2024-03-06T10:51:02;13.32;;;7.57;;
82985;SDS011;72786;53.546;9.910;2024-03-06T10:53:31;11.65;;;6.47;;
82985;SDS011;72786;53.546;9.910;2024-03-06T10:55:58;13.38;;;7.10;;
82985;SDS011;72786;53.546;9.910;2024-03-06T10:58:27;11.07;;;6.55;;
82985;SDS011;72786;53.546;9.910;2024-03-06T11:00:55;13.75;;;7.30;;
82985;SDS011;72786;53.546;9.910;2024-03-06T11:03:24;12.45;;;7.20;;
82985;SDS011;72786;53.546;9.910;2024-03-06T11:05:52;11.90;;;7.30;;
82985;SDS011;72786;53.546;9.910;2024-03-06T11:08:18;12.48;;;7.28;;
82985;SDS011;72786;53.546;9.910;2024-03-06T11:10:46;12.15;;;7.40;;
82985;SDS011;72786;53.546;9.910;2024-03-06T11:13:22;12.10;;;7.25;;
82985;SDS011;72786;53.546;9.910;2024-03-06T11:15:52;12.25;;;7.05;;
82985;SDS011;72786;53.546;9.910;2024-03-06T11:20:59;12.07;;;6.88;;
82985;SDS011;72786;53.546;9.910;2024-03-06T11:29:26;13.43;;;7.00;;
82985;SDS011;72786;53.546;9.910;2024-03-06T11:32:06;13.57;;;7.13;;
82985;SDS011;72786;53.546;9.910;2024-03-06T11:34:35;16.00;;;8.35;;
82985;SDS011;72786;53.546;9.910;2024-03-06T11:37:06;16.00;;;8.35;;
82985;SDS011;72786;53.546;9.910;2024-03-06T11:39:35;12.18;;;6.63;;
82985;SDS011;72786;53.546;9.910;2024-03-06T11:42:03;16.70;;;7.88;;
82985;SDS011;72786;53.546;9.910;2024-03-06T11:44:31;13.32;;;7.55;;
82985;SDS011;72786;53.546;9.910;2024-03-06T11:47:00;11.77;;;7.15;;
82985;SDS011;72786;53.546;9.910;2024-03-06T11:49:28;13.77;;;7.53;;
82985;SDS011;72786;53.546;9.910;2024-03-06T11:51:56;11.32;;;6.60;;
82985;SDS011;72786;53.546;9.910;2024-03-06T11:54:24;11.30;;;6.32;;
82985;SDS011;72786;53.546;9.910;2024-03-06T11:56:53;12.30;;;7.25;;
82985;SDS011;72786;53.546;9.910;2024-03-06T11:59:32;14.23;;;7.65;;
82985;SDS011;72786;53.546;9.910;2024-03-06T12:02:05;12.75;;;7.97;;
82985;SDS011;72786;53.546;9.910;2024-03-06T12:04:35;12.38;;;6.68;;
82985;SDS011;72786;53.546;9.910;2024-03-06T12:07:04;13.80;;;8.13;;
82985;SDS011;72786;53.546;9.910;2024-03-06T12:09:32;13.65;;;7.40;;
82985;SDS011;72786;53.546;9.910;2024-03-06T12:12:04;12.35;;;7.18;;
82985;SDS011;72786;53.546;9.910;2024-03-06T12:14:34;11.48;;;6.80;;
82985;SDS011;72786;53.546;9.910;2024-03-06T12:17:01;12.85;;;7.15;;
82985;SDS011;72786;53.546;9.910;2024-03-06T12:19:36;14.55;;;7.78;;
82985;SDS011;72786;53.546;9.910;2024-03-06T12:22:03;12.73;;;7.47;;
82985;SDS011;72786;53.546;9.910;2024-03-06T12:24:34;14.43;;;7.57;;
82985;SDS011;72786;53.546;9.910;2024-03-06T12:27:01;12.75;;;7.75;;
82985;SDS011;72786;53.546;9.910;2024-03-06T12:29:30;13.68;;;7.65;;
82985;SDS011;72786;53.546;9.910;2024-03-06T12:32:01;13.10;;;7.68;;
82985;SDS011;72786;53.546;9.910;2024-03-06T12:34:29;11.65;;;7.32;;
82985;SDS011;72786;53.546;9.910;2024-03-06T12:37:08;13.80;;;7.60;;
82985;SDS011;72786;53.546;9.910;2024-03-06T12:39:36;11.90;;;6.85;;
82985;SDS011;72786;53.546;9.910;2024-03-06T12:42:08;13.63;;;6.50;;
82985;SDS011;72786;53.546;9.910;2024-03-06T12:44:35;13.95;;;8.10;;
82985;SDS011;72786;53.546;9.910;2024-03-06T12:47:01;9.93;;;6.57;;
82985;SDS011;72786;53.546;9.910;2024-03-06T12:49:28;13.25;;;6.97;;
82985;SDS011;72786;53.546;9.910;2024-03-06T12:51:55;12.80;;;6.88;;
82985;SDS011;72786;53.546;9.910;2024-03-06T12:54:21;12.35;;;6.70;;
82985;SDS011;72786;53.546;9.910;2024-03-06T12:56:48;12.65;;;7.50;;
82985;SDS011;72786;53.546;9.910;2024-03-06T12:59:14;12.38;;;6.88;;
82985;SDS011;72786;53.546;9.910;2024-03-06T13:01:41;15.80;;;8.20;;
82985;SDS011;72786;53.546;9.910;2024-03-06T13:04:08;12.07;;;7.13;;
82985;SDS011;72786;53.546;9.910;2024-03-06T13:06:38;12.57;;;7.60;;
82985;SDS011;72786;53.546;9.910;2024-03-06T13:09:06;13.50;;;6.75;;
82985;SDS011;72786;53.546;9.910;2024-03-06T13:11:33;12.07;;;6.88;;
82985;SDS011;72786;53.546;9.910;2024-03-06T13:13:59;14.93;;;6.50;;
82985;SDS011;72786;53.546;9.910;2024-03-06T13:16:27;10.07;;;6.68;;
82985;SDS011;72786;53.546;9.910;2024-03-06T13:18:54;11.75;;;5.95;;
82985;SDS011;72786;53.546;9.910;2024-03-06T13:21:23;10.10;;;5.93;;
82985;SDS011;72786;53.546;9.910;2024-03-06T13:23:49;10.70;;;6.35;;
82985;SDS011;72786;53.546;9.910;2024-03-06T13:26:16;9.43;;;5.60;;
82985;SDS011;72786;53.546;9.910;2024-03-06T13:28:44;9.20;;;5.95;;
82985;SDS011;72786;53.546;9.910;2024-03-06T13:31:10;9.63;;;6.15;;
82985;SDS011;72786;53.546;9.910;2024-03-06T13:33:37;10.50;;;5.88;;
82985;SDS011;72786;53.546;9.910;2024-03-06T13:36:03;9.82;;;6.35;;
82985;SDS011;72786;53.546;9.910;2024-03-06T13:38:31;10.35;;;7.03;;
82985;SDS011;72786;53.546;9.910;2024-03-06T13:40:57;9.20;;;6.00;;
82985;SDS011;72786;53.546;9.910;2024-03-06T13:43:24;11.95;;;6.90;;
82985;SDS011;72786;53.546;9.910;2024-03-06T13:45:50;8.68;;;6.28;;
82985;SDS011;72786;53.546;9.910;2024-03-06T13:48:17;11.00;;;6.22;;
82985;SDS011;72786;53.546;9.910;2024-03-06T13:50:45;11.57;;;6.90;;
82985;SDS011;72786;53.546;9.910;2024-03-06T13:53:12;11.27;;;6.95;;
82985;SDS011;72786;53.546;9.910;2024-03-06T13:55:39;11.63;;;6.30;;
82985;SDS011;72786;53.546;9.910;2024-03-06T13:58:06;9.57;;;6.25;;
82985;SDS011;72786;53.546;9.910;2024-03-06T14:00:33;11.90;;;6.75;;
82985;SDS011;72786;53.546;9.910;2024-03-06T14:03:01;13.82;;;7.40;;
82985;SDS011;72786;53.546;9.910;2024-03-06T14:05:28;9.98;;;5.72;;
82985;SDS011;72786;53.546;9.910;2024-03-06T14:07:55;8.70;;;5.90;;
82985;SDS011;72786;53.546;9.910;2024-03-06T14:10:22;9.23;;;5.90;;
82985;SDS011;72786;53.546;9.910;2024-03-06T14:12:50;10.10;;;5.97;;
82985;SDS011;72786;53.546;9.910;2024-03-06T14:15:18;10.05;;;6.47;;
82985;SDS011;72786;53.546;9.910;2024-03-06T14:17:45;12.23;;;6.32;;
82985;SDS011;72786;53.546;9.910;2024-03-06T14:20:11;10.18;;;6.75;;
82985;SDS011;72786;53.546;9.910;2024-03-06T14:22:42;10.30;;;5.68;;
82985;SDS011;72786;53.546;9.910;2024-03-06T14:25:09;11.40;;;6.53;;
82985;SDS011;72786;53.546;9.910;2024-03-06T14:27:36;10.02;;;5.40;;
82985;SDS011;72786;53.546;9.910;2024-03-06T14:30:06;10.75;;;5.13;;
82985;SDS011;72786;53.546;9.910;2024-03-06T14:32:33;7.95;;;4.60;;
82985;SDS011;72786;53.546;9.910;2024-03-06T14:35:00;8.50;;;4.50;;
82985;SDS011;72786;53.546;9.910;2024-03-06T14:37:27;9.68;;;4.53;;
82985;SDS011;72786;53.546;9.910;2024-03-06T14:39:54;7.55;;;4.60;;
82985;SDS011;72786;53.546;9.910;2024-03-06T14:42:21;10.90;;;4.63;;
82985;SDS011;72786;53.546;9.910;2024-03-06T14:44:47;8.82;;;4.50;;
82985;SDS011;72786;53.546;9.910;2024-03-06T14:47:14;7.95;;;4.65;;
82985;SDS011;72786;53.546;9.910;2024-03-06T14:49:42;8.77;;;4.70;;
82985;SDS011;72786;53.546;9.910;2024-03-06T14:52:12;9.43;;;4.82;;
82985;SDS011;72786;53.546;9.910;2024-03-06T14:54:39;8.95;;;4.88;;
82985;SDS011;72786;53.546;9.910;2024-03-06T14:57:10;11.65;;;5.95;;
82985;SDS011;72786;53.546;9.910;2024-03-06T14:59:38;9.27;;;4.78;;